createdAt,value
2018-03-21T00:00:59.647Z,1022.34
2018-03-21T00:01:59.658Z,1022.37
2018-03-21T00:02:59.667Z,1022.37
2018-03-21T00:03:59.677Z,1022.38
2018-03-21T00:04:59.688Z,1022.32
2018-03-21T00:05:59.703Z,1022.38
2018-03-21T00:06:59.711Z,1022.35
2018-03-21T00:07:59.710Z,1022.42
2018-03-21T00:08:59.720Z,1022.40
2018-03-21T00:09:59.730Z,1022.45
2018-03-21T00:10:59.741Z,1022.45
2018-03-21T00:11:59.751Z,1022.45
2018-03-21T00:12:59.763Z,1022.43
2018-03-21T00:13:59.776Z,1022.41
2018-03-21T00:14:59.781Z,1022.44
2018-03-21T00:15:59.792Z,1022.46
2018-03-21T00:16:59.802Z,1022.41
2018-03-21T00:17:59.815Z,1022.42
2018-03-21T00:18:59.821Z,1022.40
2018-03-21T00:19:59.831Z,1022.40
2018-03-21T00:20:59.841Z,1022.40
2018-03-21T00:21:59.852Z,1022.40
2018-03-21T00:22:59.862Z,1022.39
2018-03-21T00:23:59.872Z,1022.40
2018-03-21T00:24:59.882Z,1022.37
2018-03-21T00:25:59.892Z,1022.38
2018-03-21T00:26:59.902Z,1022.40
2018-03-21T00:27:59.922Z,1022.40
2018-03-21T00:28:59.922Z,1022.43
2018-03-21T00:29:59.935Z,1022.43
2018-03-21T00:30:59.942Z,1022.47
2018-03-21T00:31:59.950Z,1022.43
2018-03-21T00:32:59.961Z,1022.46
2018-03-21T00:33:59.974Z,1022.43
2018-03-21T00:34:59.986Z,1022.46
2018-03-21T00:35:59.991Z,1022.46
2018-03-21T00:37:00.005Z,1022.46
2018-03-21T00:38:00.016Z,1022.46
2018-03-21T00:39:00.023Z,1022.45
2018-03-21T00:40:00.034Z,1022.47
2018-03-21T00:41:00.042Z,1022.46
2018-03-21T00:42:00.060Z,1022.51
2018-03-21T00:43:00.069Z,1022.53
2018-03-21T00:44:00.071Z,1022.50
2018-03-21T00:45:00.086Z,1022.50
2018-03-21T00:46:00.093Z,1022.49
2018-03-21T00:47:00.109Z,1022.52
2018-03-21T00:48:00.112Z,1022.51
2018-03-21T00:49:00.131Z,1022.51
2018-03-21T00:50:00.139Z,1022.49
2018-03-21T00:51:00.147Z,1022.48
2018-03-21T00:52:00.155Z,1022.48
2018-03-21T00:53:00.166Z,1022.49
2018-03-21T00:54:00.170Z,1022.50
2018-03-21T00:55:00.180Z,1022.48
2018-03-21T00:56:00.190Z,1022.45
2018-03-21T00:57:00.201Z,1022.41
2018-03-21T00:58:00.211Z,1022.44
2018-03-21T00:59:00.222Z,1022.44
2018-03-21T01:00:00.230Z,1022.41
2018-03-21T01:01:00.241Z,1022.44
2018-03-21T01:02:00.250Z,1022.43
2018-03-21T01:03:00.274Z,1022.45
2018-03-21T01:04:00.271Z,1022.43
2018-03-21T01:05:00.281Z,1022.48
2018-03-21T01:06:00.290Z,1022.48
2018-03-21T01:07:00.303Z,1022.49
2018-03-21T01:08:00.310Z,1022.48
2018-03-21T01:09:00.322Z,1022.48
2018-03-21T01:10:00.330Z,1022.45
2018-03-21T01:11:00.339Z,1022.53
2018-03-21T01:12:00.349Z,1022.55
2018-03-21T01:13:00.359Z,1022.52
2018-03-21T01:14:00.369Z,1022.53
2018-03-21T01:15:00.380Z,1022.55
2018-03-21T01:16:00.389Z,1022.56
2018-03-21T01:17:00.398Z,1022.57
2018-03-21T01:18:00.409Z,1022.55
2018-03-21T01:19:00.419Z,1022.56
2018-03-21T01:20:00.428Z,1022.57
2018-03-21T01:21:00.443Z,1022.57
2018-03-21T01:22:00.448Z,1022.55
2018-03-21T01:23:00.460Z,1022.52
2018-03-21T01:24:00.468Z,1022.51
2018-03-21T01:25:00.481Z,1022.52
2018-03-21T01:26:00.491Z,1022.51
2018-03-21T01:27:00.499Z,1022.50
2018-03-21T01:28:00.506Z,1022.54
2018-03-21T01:29:00.519Z,1022.51
2018-03-21T01:30:00.525Z,1022.51
2018-03-21T01:31:00.537Z,1022.50
2018-03-21T01:32:00.549Z,1022.51
2018-03-21T01:33:00.556Z,1022.50
2018-03-21T01:34:00.569Z,1022.52
2018-03-21T01:35:00.576Z,1022.51
2018-03-21T01:36:00.585Z,1022.50
2018-03-21T01:37:00.596Z,1022.54
2018-03-21T01:38:00.607Z,1022.50
2018-03-21T01:39:00.616Z,1022.54
2018-03-21T01:40:00.626Z,1022.51
2018-03-21T01:41:00.635Z,1022.49
2018-03-21T01:42:00.645Z,1022.50
2018-03-21T01:43:00.655Z,1022.48
2018-03-21T01:44:00.664Z,1022.50
2018-03-21T01:45:00.674Z,1022.44
2018-03-21T01:46:00.684Z,1022.50
2018-03-21T01:47:00.696Z,1022.46
2018-03-21T01:48:00.702Z,1022.46
2018-03-21T01:49:00.711Z,1022.50
2018-03-21T01:50:00.773Z,1022.47
2018-03-21T01:51:00.734Z,1022.50
2018-03-21T01:52:00.743Z,1022.46
2018-03-21T01:53:00.752Z,1022.49
2018-03-21T01:54:00.762Z,1022.46
2018-03-21T01:55:00.777Z,1022.48
2018-03-21T01:56:00.782Z,1022.44
2018-03-21T01:57:00.792Z,1022.46
2018-03-21T01:58:00.802Z,1022.45
2018-03-21T01:59:00.811Z,1022.43
2018-03-21T02:00:00.820Z,1022.41
2018-03-21T02:01:00.830Z,1022.42
2018-03-21T02:02:00.840Z,1022.41
2018-03-21T02:03:00.852Z,1022.40
2018-03-21T02:04:00.859Z,1022.42
2018-03-21T02:05:00.869Z,1022.44
2018-03-21T02:06:00.880Z,1022.40
2018-03-21T02:07:00.892Z,1022.39
2018-03-21T02:08:00.898Z,1022.36
2018-03-21T02:09:00.915Z,1022.37
2018-03-21T02:10:00.920Z,1022.40
2018-03-21T02:11:00.927Z,1022.43
2018-03-21T02:12:00.937Z,1022.40
2018-03-21T02:13:00.947Z,1022.39
2018-03-21T02:14:00.956Z,1022.42
2018-03-21T02:15:00.967Z,1022.37
2018-03-21T02:16:00.978Z,1022.41
2018-03-21T02:17:00.986Z,1022.41
2018-03-21T02:18:00.996Z,1022.40
2018-03-21T02:19:01.007Z,1022.43
2018-03-21T02:20:01.013Z,1022.41
2018-03-21T02:21:01.024Z,1022.39
2018-03-21T02:22:01.034Z,1022.41
2018-03-21T02:23:01.045Z,1022.43
2018-03-21T02:24:01.053Z,1022.42
2018-03-21T02:25:01.063Z,1022.45
2018-03-21T02:26:01.074Z,1022.44
2018-03-21T02:27:01.082Z,1022.42
2018-03-21T02:28:01.093Z,1022.48
2018-03-21T02:29:01.101Z,1022.47
2018-03-21T02:30:01.114Z,1022.50
2018-03-21T02:31:01.131Z,1022.50
2018-03-21T02:32:01.132Z,1022.51
2018-03-21T02:33:01.141Z,1022.53
2018-03-21T02:34:01.154Z,1022.51
2018-03-21T02:35:01.160Z,1022.52
2018-03-21T02:36:01.169Z,1022.52
2018-03-21T02:37:01.184Z,1022.56
2018-03-21T02:38:01.191Z,1022.52
2018-03-21T02:39:01.198Z,1022.58
2018-03-21T02:40:01.207Z,1022.55
2018-03-21T02:41:01.218Z,1022.53
2018-03-21T02:42:01.227Z,1022.52
2018-03-21T02:43:01.236Z,1022.49
2018-03-21T02:44:01.264Z,1022.49
2018-03-21T02:45:01.256Z,1022.48
2018-03-21T02:46:01.468Z,1022.47
2018-03-21T02:47:01.279Z,1022.48
2018-03-21T02:48:01.284Z,1022.49
2018-03-21T02:49:01.297Z,1022.52
2018-03-21T02:50:01.305Z,1022.51
2018-03-21T02:51:01.319Z,1022.50
2018-03-21T02:52:01.324Z,1022.55
2018-03-21T02:53:01.338Z,1022.57
2018-03-21T02:54:01.357Z,1022.52
2018-03-21T02:55:01.353Z,1022.55
2018-03-21T02:56:01.370Z,1022.55
2018-03-21T02:57:01.372Z,1022.55
2018-03-21T02:58:01.382Z,1022.60
2018-03-21T02:59:01.392Z,1022.59
2018-03-21T03:00:01.399Z,1022.57
2018-03-21T03:01:01.413Z,1022.58
2018-03-21T03:02:01.419Z,1022.53
2018-03-21T03:03:01.429Z,1022.57
2018-03-21T03:04:01.438Z,1022.52
2018-03-21T03:05:01.450Z,1022.55
2018-03-21T03:06:01.504Z,1022.55
2018-03-21T03:07:01.468Z,1022.58
2018-03-21T03:08:01.479Z,1022.57
2018-03-21T03:09:01.488Z,1022.58
2018-03-21T03:10:01.496Z,1022.58
2018-03-21T03:11:01.507Z,1022.62
2018-03-21T03:12:01.519Z,1022.64
2018-03-21T03:13:01.525Z,1022.62
2018-03-21T03:14:01.535Z,1022.62
2018-03-21T03:15:01.548Z,1022.66
2018-03-21T03:16:01.554Z,1022.66
2018-03-21T03:17:01.565Z,1022.69
2018-03-21T03:18:01.573Z,1022.70
2018-03-21T03:19:01.583Z,1022.70
2018-03-21T03:20:01.597Z,1022.67
2018-03-21T03:21:01.602Z,1022.69
2018-03-21T03:22:01.614Z,1022.70
2018-03-21T03:23:01.620Z,1022.65
2018-03-21T03:24:01.630Z,1022.66
2018-03-21T03:25:01.641Z,1022.68
2018-03-21T03:26:01.650Z,1022.61
2018-03-21T03:27:01.661Z,1022.59
2018-03-21T03:28:01.669Z,1022.61
2018-03-21T03:29:01.679Z,1022.62
2018-03-21T03:30:01.696Z,1022.58
2018-03-21T03:31:01.700Z,1022.59
2018-03-21T03:32:01.707Z,1022.57
2018-03-21T03:33:01.717Z,1022.61
2018-03-21T03:34:01.729Z,1022.58
2018-03-21T03:35:01.735Z,1022.61
2018-03-21T03:36:01.752Z,1022.62
2018-03-21T03:37:01.755Z,1022.62
2018-03-21T03:38:01.766Z,1022.56
2018-03-21T03:39:01.775Z,1022.56
2018-03-21T03:40:01.824Z,1022.60
2018-03-21T03:41:01.796Z,1022.60
2018-03-21T03:42:01.803Z,1022.56
2018-03-21T03:43:01.815Z,1022.60
2018-03-21T03:44:01.831Z,1022.62
2018-03-21T03:45:01.839Z,1022.57
2018-03-21T03:46:01.843Z,1022.61
2018-03-21T03:47:01.852Z,1022.59
2018-03-21T03:48:01.861Z,1022.58
2018-03-21T03:49:01.871Z,1022.62
2018-03-21T03:50:01.880Z,1022.63
2018-03-21T03:51:01.891Z,1022.61
2018-03-21T03:52:01.901Z,1022.65
2018-03-21T03:53:01.913Z,1022.65
2018-03-21T03:54:01.920Z,1022.66
2018-03-21T03:55:01.928Z,1022.65
2018-03-21T03:56:01.938Z,1022.65
2018-03-21T03:57:01.948Z,1022.65
2018-03-21T03:58:01.958Z,1022.64
2018-03-21T03:59:01.965Z,1022.65
2018-03-21T04:00:01.975Z,1022.66
2018-03-21T04:01:01.994Z,1022.65
2018-03-21T04:02:01.995Z,1022.63
2018-03-21T04:03:02.003Z,1022.61
2018-03-21T04:04:02.013Z,1022.62
2018-03-21T04:05:02.022Z,1022.62
2018-03-21T04:06:02.037Z,1022.63
2018-03-21T04:07:02.041Z,1022.64
2018-03-21T04:08:02.052Z,1022.63
2018-03-21T04:09:02.061Z,1022.61
2018-03-21T04:10:02.072Z,1022.58
2018-03-21T04:11:02.081Z,1022.59
2018-03-21T04:12:02.092Z,1022.62
2018-03-21T04:13:02.103Z,1022.61
2018-03-21T04:14:02.111Z,1022.65
2018-03-21T04:15:02.120Z,1022.64
2018-03-21T04:16:02.129Z,1022.62
2018-03-21T04:17:02.178Z,1022.62
2018-03-21T04:18:02.189Z,1022.69
2018-03-21T04:19:02.159Z,1022.67
2018-03-21T04:20:02.162Z,1022.68
2018-03-21T04:21:02.179Z,1022.71
2018-03-21T04:22:02.182Z,1022.71
2018-03-21T04:23:02.195Z,1022.72
2018-03-21T04:24:02.204Z,1022.72
2018-03-21T04:25:02.215Z,1022.69
2018-03-21T04:26:02.224Z,1022.68
2018-03-21T04:27:02.231Z,1022.70
2018-03-21T04:28:02.240Z,1022.72
2018-03-21T04:29:02.251Z,1022.68
2018-03-21T04:30:02.270Z,1022.70
2018-03-21T04:31:02.270Z,1022.70
2018-03-21T04:32:02.279Z,1022.69
2018-03-21T04:33:02.295Z,1022.71
2018-03-21T04:34:02.298Z,1022.72
2018-03-21T04:35:02.320Z,1022.71
2018-03-21T04:36:02.319Z,1022.69
2018-03-21T04:37:02.324Z,1022.68
2018-03-21T04:38:02.334Z,1022.71
2018-03-21T04:39:02.343Z,1022.71
2018-03-21T04:40:02.352Z,1022.72
2018-03-21T04:41:02.363Z,1022.73
2018-03-21T04:42:02.372Z,1022.76
2018-03-21T04:43:02.382Z,1022.74
2018-03-21T04:44:02.389Z,1022.76
2018-03-21T04:45:02.401Z,1022.73
2018-03-21T04:46:02.409Z,1022.71
2018-03-21T04:47:02.422Z,1022.68
2018-03-21T04:48:02.431Z,1022.68
2018-03-21T04:49:02.441Z,1022.69
2018-03-21T04:50:02.448Z,1022.68
2018-03-21T04:51:02.457Z,1022.69
2018-03-21T04:52:02.466Z,1022.67
2018-03-21T04:53:02.476Z,1022.65
2018-03-21T04:54:02.482Z,1022.60
2018-03-21T04:55:02.496Z,1022.63
2018-03-21T04:56:02.524Z,1022.63
2018-03-21T04:57:02.512Z,1022.64
2018-03-21T04:58:02.529Z,1022.63
2018-03-21T04:59:02.530Z,1022.66
2018-03-21T05:00:02.542Z,1022.64
2018-03-21T05:01:02.557Z,1022.60
2018-03-21T05:02:02.557Z,1022.59
2018-03-21T05:03:02.568Z,1022.60
2018-03-21T05:04:02.576Z,1022.61
2018-03-21T05:05:02.585Z,1022.56
2018-03-21T05:06:02.595Z,1022.59
2018-03-21T05:07:02.606Z,1022.58
2018-03-21T05:08:02.612Z,1022.58
2018-03-21T05:09:02.622Z,1022.59
2018-03-21T05:10:02.630Z,1022.62
2018-03-21T05:11:02.641Z,1022.63
2018-03-21T05:12:02.648Z,1022.63
2018-03-21T05:13:02.658Z,1022.64
2018-03-21T05:14:02.668Z,1022.63
2018-03-21T05:15:02.680Z,1022.63
2018-03-21T05:16:02.685Z,1022.64
2018-03-21T05:17:02.696Z,1022.64
2018-03-21T05:18:02.706Z,1022.64
2018-03-21T05:19:02.714Z,1022.62
2018-03-21T05:20:02.723Z,1022.64
2018-03-21T05:21:02.731Z,1022.67
2018-03-21T05:22:02.744Z,1022.60
2018-03-21T05:23:02.751Z,1022.66
2018-03-21T05:24:02.760Z,1022.64
2018-03-21T05:25:02.770Z,1022.68
2018-03-21T05:26:02.780Z,1022.65
2018-03-21T05:27:02.790Z,1022.65
2018-03-21T05:28:02.797Z,1022.61
2018-03-21T05:29:02.805Z,1022.68
2018-03-21T05:30:02.815Z,1022.72
2018-03-21T05:31:02.824Z,1022.70
2018-03-21T05:32:02.833Z,1022.71
2018-03-21T05:33:02.845Z,1022.73
2018-03-21T05:34:02.857Z,1022.76
2018-03-21T05:35:02.862Z,1022.74
2018-03-21T05:36:02.876Z,1022.76
2018-03-21T05:37:02.879Z,1022.79
2018-03-21T05:38:02.894Z,1022.76
2018-03-21T05:39:02.897Z,1022.78
2018-03-21T05:40:02.907Z,1022.83
2018-03-21T05:41:02.916Z,1022.83
2018-03-21T05:42:02.926Z,1022.80
2018-03-21T05:43:02.934Z,1022.78
2018-03-21T05:44:02.943Z,1022.82
2018-03-21T05:45:02.952Z,1022.81
2018-03-21T05:46:02.962Z,1022.82
2018-03-21T05:47:02.970Z,1022.82
2018-03-21T05:48:02.991Z,1022.86
2018-03-21T05:49:02.990Z,1022.87
2018-03-21T05:50:03.003Z,1022.89
2018-03-21T05:51:03.013Z,1022.92
2018-03-21T05:52:03.016Z,1022.90
2018-03-21T05:53:03.029Z,1022.96
2018-03-21T05:54:03.033Z,1023.01
2018-03-21T05:55:03.045Z,1022.94
2018-03-21T05:56:03.051Z,1022.98
2018-03-21T05:57:03.059Z,1022.96
2018-03-21T05:58:03.070Z,1022.98
2018-03-21T05:59:03.081Z,1023.03
2018-03-21T06:00:03.092Z,1023.07
2018-03-21T06:01:03.098Z,1023.06
2018-03-21T06:02:03.107Z,1023.05
2018-03-21T06:03:03.116Z,1023.07
2018-03-21T06:04:03.123Z,1023.06
2018-03-21T06:05:03.137Z,1023.07
2018-03-21T06:06:03.143Z,1023.08
2018-03-21T06:07:03.153Z,1023.06
2018-03-21T06:08:03.164Z,1023.10
2018-03-21T06:09:03.169Z,1023.05
2018-03-21T06:10:03.181Z,1023.07
2018-03-21T06:11:03.198Z,1023.08
2018-03-21T06:12:03.198Z,1023.12
2018-03-21T06:13:03.205Z,1023.15
2018-03-21T06:14:03.217Z,1023.17
2018-03-21T06:15:03.240Z,1023.21
2018-03-21T06:16:03.234Z,1023.20
2018-03-21T06:17:03.248Z,1023.22
2018-03-21T06:18:03.255Z,1023.25
2018-03-21T06:19:03.261Z,1023.24
2018-03-21T06:20:03.272Z,1023.26
2018-03-21T06:21:03.281Z,1023.30
2018-03-21T06:22:03.291Z,1023.36
2018-03-21T06:23:03.300Z,1023.39
2018-03-21T06:24:03.309Z,1023.44
2018-03-21T06:25:03.320Z,1023.43
2018-03-21T06:26:03.329Z,1023.44
2018-03-21T06:27:03.336Z,1023.49
2018-03-21T06:28:03.343Z,1023.51
2018-03-21T06:29:03.352Z,1023.48
2018-03-21T06:30:03.364Z,1023.50
2018-03-21T06:31:03.371Z,1023.54
2018-03-21T06:32:03.384Z,1023.48
2018-03-21T06:33:03.388Z,1023.50
2018-03-21T06:34:03.400Z,1023.48
2018-03-21T06:35:03.408Z,1023.44
2018-03-21T06:36:03.419Z,1023.43
2018-03-21T06:37:03.425Z,1023.45
2018-03-21T06:38:03.444Z,1023.42
2018-03-21T06:39:03.442Z,1023.43
2018-03-21T06:40:03.452Z,1023.41
2018-03-21T06:41:03.463Z,1023.44
2018-03-21T06:42:03.475Z,1023.43
2018-03-21T06:43:03.480Z,1023.46
2018-03-21T06:44:03.489Z,1023.43
2018-03-21T06:45:03.502Z,1023.47
2018-03-21T06:46:03.508Z,1023.45
2018-03-21T06:47:03.518Z,1023.45
2018-03-21T06:48:03.531Z,1023.45
2018-03-21T06:49:03.539Z,1023.46
2018-03-21T06:50:03.548Z,1023.41
2018-03-21T06:51:03.560Z,1023.44
2018-03-21T06:52:03.565Z,1023.47
2018-03-21T06:53:03.572Z,1023.51
2018-03-21T06:54:03.581Z,1023.55
2018-03-21T06:55:03.597Z,1023.58
2018-03-21T06:56:03.602Z,1023.59
2018-03-21T06:57:03.611Z,1023.62
2018-03-21T06:59:03.629Z,1023.61
2018-03-21T07:00:03.639Z,1023.61
2018-03-21T07:01:03.647Z,1023.58
2018-03-21T07:02:03.656Z,1023.59
2018-03-21T07:03:03.669Z,1023.53
2018-03-21T07:04:03.675Z,1023.58
2018-03-21T07:05:03.686Z,1023.58
2018-03-21T07:06:03.692Z,1023.53
2018-03-21T07:07:03.704Z,1023.50
2018-03-21T07:08:03.721Z,1023.49
2018-03-21T07:09:03.721Z,1023.54
2018-03-21T07:10:03.740Z,1023.51
2018-03-21T07:11:03.739Z,1023.48
2018-03-21T07:12:03.749Z,1023.52
2018-03-21T07:13:03.757Z,1023.51
2018-03-21T07:14:03.766Z,1023.51
2018-03-21T07:15:03.778Z,1023.50
2018-03-21T07:16:03.788Z,1023.54
2018-03-21T07:17:03.812Z,1023.58
2018-03-21T07:18:03.805Z,1023.57
2018-03-21T07:19:04.443Z,1023.54
2018-03-21T07:20:03.822Z,1023.54
2018-03-21T07:21:03.829Z,1023.50
2018-03-21T07:22:03.841Z,1023.52
2018-03-21T07:23:03.864Z,1023.58
2018-03-21T07:24:03.859Z,1023.60
2018-03-21T07:25:03.868Z,1023.62
2018-03-21T07:26:03.879Z,1023.59
2018-03-21T07:27:03.894Z,1023.66
2018-03-21T07:28:03.902Z,1023.61
2018-03-21T07:29:03.907Z,1023.65
2018-03-21T07:30:03.920Z,1023.66
2018-03-21T07:31:03.926Z,1023.70
2018-03-21T07:32:03.936Z,1023.67
2018-03-21T07:33:03.945Z,1023.69
2018-03-21T07:34:03.952Z,1023.66
2018-03-21T07:35:03.963Z,1023.69
2018-03-21T07:36:03.977Z,1023.65
2018-03-21T07:37:03.982Z,1023.71
2018-03-21T07:38:03.991Z,1023.70
2018-03-21T07:39:04.012Z,1023.74
2018-03-21T07:40:04.011Z,1023.78
2018-03-21T07:41:04.024Z,1023.76
2018-03-21T07:42:04.032Z,1023.77
2018-03-21T07:43:04.045Z,1023.75
2018-03-21T07:44:04.049Z,1023.82
2018-03-21T07:45:04.074Z,1023.78
2018-03-21T07:46:04.066Z,1023.76
2018-03-21T07:47:04.078Z,1023.81
2018-03-21T07:48:04.095Z,1023.81
2018-03-21T07:49:04.097Z,1023.85
2018-03-21T07:50:04.104Z,1023.84
2018-03-21T07:51:04.134Z,1023.85
2018-03-21T07:52:04.117Z,1023.89
2018-03-21T07:53:04.128Z,1023.91
2018-03-21T07:54:04.137Z,1023.95
2018-03-21T07:55:04.179Z,1023.94
2018-03-21T07:56:04.155Z,1023.94
2018-03-21T07:57:04.178Z,1023.97
2018-03-21T07:58:04.175Z,1023.97
2018-03-21T07:59:04.188Z,1023.94
2018-03-21T08:00:04.196Z,1023.96
2018-03-21T08:01:04.216Z,1023.96
2018-03-21T08:02:04.217Z,1023.90
2018-03-21T08:03:04.223Z,1023.93
2018-03-21T08:04:04.232Z,1023.92
2018-03-21T08:06:04.275Z,1023.93
2018-03-21T08:07:04.484Z,1023.88
2018-03-21T08:08:04.275Z,1023.84
2018-03-21T08:09:04.286Z,1023.83
2018-03-21T08:10:04.294Z,1023.84
2018-03-21T08:11:04.304Z,1023.86
2018-03-21T08:12:04.313Z,1023.81
2018-03-21T08:13:04.323Z,1023.82
2018-03-21T08:14:04.333Z,1023.83
2018-03-21T08:15:04.393Z,1023.83
2018-03-21T08:16:04.352Z,1023.88
2018-03-21T08:17:04.362Z,1023.86
2018-03-21T08:18:04.380Z,1023.89
2018-03-21T08:19:04.387Z,1023.83
2018-03-21T08:20:04.391Z,1023.88
2018-03-21T08:21:04.415Z,1023.82
2018-03-21T08:22:04.413Z,1023.90
2018-03-21T08:23:04.426Z,1023.92
2018-03-21T08:24:04.433Z,1023.90
2018-03-21T08:25:04.549Z,1023.94
2018-03-21T08:26:04.460Z,1023.91
2018-03-21T08:27:04.475Z,1023.91
2018-03-21T08:28:04.482Z,1023.91
2018-03-21T08:29:04.516Z,1023.94
2018-03-21T08:30:04.498Z,1023.99
2018-03-21T08:31:04.512Z,1024.02
2018-03-21T08:32:04.521Z,1023.96
2018-03-21T08:33:04.745Z,1023.98
2018-03-21T08:34:04.702Z,1023.96
2018-03-21T08:35:05.587Z,1023.97
2018-03-21T08:36:04.560Z,1023.97
2018-03-21T08:37:04.569Z,1023.98
2018-03-21T08:38:04.580Z,1023.94
2018-03-21T08:39:04.602Z,1023.91
2018-03-21T08:40:04.601Z,1023.90
2018-03-21T08:41:04.613Z,1023.92
2018-03-21T08:42:04.623Z,1023.94
2018-03-21T08:43:04.632Z,1023.95
2018-03-21T08:44:04.644Z,1023.97
2018-03-21T08:45:04.668Z,1023.99
2018-03-21T08:46:04.693Z,1023.95
2018-03-21T08:47:04.676Z,1023.94
2018-03-21T08:48:04.683Z,1023.95
2018-03-21T08:49:04.696Z,1023.98
2018-03-21T08:50:04.706Z,1023.98
2018-03-21T08:51:04.717Z,1023.95
2018-03-21T08:52:04.728Z,1023.99
2018-03-21T08:53:04.741Z,1023.95
2018-03-21T08:54:04.750Z,1023.91
2018-03-21T08:55:04.762Z,1023.85
2018-03-21T08:56:04.772Z,1023.89
2018-03-21T08:57:04.784Z,1023.90
2018-03-21T08:58:04.795Z,1023.92
2018-03-21T08:59:04.806Z,1023.89
2018-03-21T09:00:04.813Z,1023.93
2018-03-21T09:01:09.164Z,1023.93
2018-03-21T09:03:04.851Z,1023.95
2018-03-21T09:04:04.859Z,1023.97
2018-03-21T09:05:04.892Z,1023.98
2018-03-21T09:06:04.886Z,1023.97
2018-03-21T09:07:04.996Z,1023.94
2018-03-21T09:08:04.904Z,1024.00
2018-03-21T09:09:04.924Z,1023.95
2018-03-21T09:10:04.927Z,1023.98
2018-03-21T09:11:04.945Z,1024.00
2018-03-21T09:12:04.950Z,1024.02
2018-03-21T09:13:05.001Z,1024.03
2018-03-21T09:14:04.980Z,1024.01
2018-03-21T09:15:04.985Z,1024.01
2018-03-21T09:16:04.997Z,1024.05
2018-03-21T09:17:05.010Z,1024.09
2018-03-21T09:18:05.037Z,1024.15
2018-03-21T09:19:05.031Z,1024.13
2018-03-21T09:20:05.041Z,1024.19
2018-03-21T09:21:05.051Z,1024.17
2018-03-21T09:22:06.048Z,1024.18
2018-03-21T09:23:05.076Z,1024.11
2018-03-21T09:24:05.089Z,1024.14
2018-03-21T09:25:05.106Z,1024.11
2018-03-21T09:26:05.150Z,1024.08
2018-03-21T09:27:05.119Z,1024.10
2018-03-21T09:28:05.135Z,1024.11
2018-03-21T09:29:05.163Z,1024.16
2018-03-21T09:30:05.159Z,1024.17
2018-03-21T09:31:05.367Z,1024.11
2018-03-21T09:32:05.187Z,1024.10
2018-03-21T09:33:05.209Z,1024.11
2018-03-21T09:34:05.201Z,1024.06
2018-03-21T09:35:05.214Z,1024.09
2018-03-21T09:36:05.246Z,1024.05
2018-03-21T09:37:05.373Z,1024.06
2018-03-21T09:38:05.245Z,1024.08
2018-03-21T09:39:05.436Z,1024.07
2018-03-21T09:40:05.372Z,1024.09
2018-03-21T09:41:05.280Z,1024.11
2018-03-21T09:42:05.292Z,1024.09
2018-03-21T09:43:05.305Z,1024.07
2018-03-21T09:44:05.317Z,1024.06
2018-03-21T09:45:05.330Z,1024.03
2018-03-21T09:46:05.339Z,1023.99
2018-03-21T09:47:05.353Z,1023.98
2018-03-21T09:48:05.364Z,1024.00
2018-03-21T09:49:05.393Z,1023.97
2018-03-21T09:50:05.383Z,1023.97
2018-03-21T09:51:05.394Z,1023.96
2018-03-21T09:52:05.402Z,1023.93
2018-03-21T09:53:05.431Z,1023.94
2018-03-21T09:54:05.428Z,1023.88
2018-03-21T09:55:05.451Z,1023.93
2018-03-21T09:56:05.451Z,1023.91
2018-03-21T09:57:05.463Z,1023.97
2018-03-21T09:58:05.481Z,1023.91
2018-03-21T09:59:05.749Z,1023.91
2018-03-21T10:00:06.570Z,1023.87
2018-03-21T10:01:05.513Z,1023.88
2018-03-21T10:02:05.527Z,1023.88
2018-03-21T10:03:05.548Z,1023.84
2018-03-21T10:04:05.551Z,1023.79
2018-03-21T10:05:05.571Z,1023.80
2018-03-21T10:06:05.582Z,1023.81
2018-03-21T10:07:05.588Z,1023.81
2018-03-21T10:08:05.598Z,1023.81
2018-03-21T10:09:05.610Z,1023.84
2018-03-21T10:10:05.625Z,1023.84
2018-03-21T10:11:05.636Z,1023.82
2018-03-21T10:12:05.648Z,1023.81
2018-03-21T10:13:05.675Z,1023.81
2018-03-21T10:14:05.673Z,1023.81
2018-03-21T10:15:05.685Z,1023.81
2018-03-21T10:16:05.703Z,1023.86
2018-03-21T10:17:05.711Z,1023.84
2018-03-21T10:18:05.723Z,1023.87
2018-03-21T10:19:05.735Z,1023.90
2018-03-21T10:20:05.748Z,1023.89
2018-03-21T10:21:05.757Z,1023.91
2018-03-21T10:22:05.772Z,1023.88
2018-03-21T10:23:05.783Z,1023.87
2018-03-21T10:24:05.866Z,1023.88
2018-03-21T10:25:05.805Z,1023.90
2018-03-21T10:26:06.978Z,1023.92
2018-03-21T10:27:05.848Z,1023.95
2018-03-21T10:28:05.842Z,1023.89
2018-03-21T10:29:05.855Z,1023.89
2018-03-21T10:30:05.872Z,1023.91
2018-03-21T10:31:05.879Z,1023.89
2018-03-21T10:32:05.912Z,1023.86
2018-03-21T10:33:05.915Z,1023.82
2018-03-21T10:34:05.915Z,1023.79
2018-03-21T10:35:05.939Z,1023.79
2018-03-21T10:36:05.948Z,1023.80
2018-03-21T10:37:05.954Z,1023.78
2018-03-21T10:38:05.967Z,1023.77
2018-03-21T10:39:06.059Z,1023.76
2018-03-21T10:40:05.994Z,1023.75
2018-03-21T10:41:06.000Z,1023.80
2018-03-21T10:42:06.015Z,1023.75
2018-03-21T10:43:06.025Z,1023.77
2018-03-21T10:44:06.041Z,1023.77
2018-03-21T10:45:06.106Z,1023.72
2018-03-21T10:46:06.063Z,1023.66
2018-03-21T10:47:06.080Z,1023.64
2018-03-21T10:48:06.093Z,1023.67
2018-03-21T10:49:06.207Z,1023.61
2018-03-21T10:50:06.115Z,1023.60
2018-03-21T10:51:06.131Z,1023.57
2018-03-21T10:52:06.140Z,1023.56
2018-03-21T10:53:06.150Z,1023.48
2018-03-21T10:54:06.192Z,1023.55
2018-03-21T10:55:06.180Z,1023.51
2018-03-21T10:56:06.196Z,1023.52
2018-03-21T10:57:06.213Z,1023.54
2018-03-21T10:58:06.214Z,1023.56
2018-03-21T10:59:06.234Z,1023.56
2018-03-21T11:00:06.239Z,1023.58
2018-03-21T11:01:06.452Z,1023.58
2018-03-21T11:02:06.329Z,1023.61
2018-03-21T11:03:06.275Z,1023.66
2018-03-21T11:04:06.288Z,1023.68
2018-03-21T11:05:06.300Z,1023.67
2018-03-21T11:06:06.318Z,1023.69
2018-03-21T11:07:06.332Z,1023.69
2018-03-21T11:08:06.358Z,1023.68
2018-03-21T11:09:06.403Z,1023.71
2018-03-21T11:10:06.360Z,1023.71
2018-03-21T11:11:06.376Z,1023.75
2018-03-21T11:12:06.389Z,1023.79
2018-03-21T11:13:06.397Z,1023.80
2018-03-21T11:14:06.415Z,1023.83
2018-03-21T11:15:06.420Z,1023.86
2018-03-21T11:16:06.432Z,1023.87
2018-03-21T11:17:06.449Z,1023.84
2018-03-21T11:18:06.457Z,1023.90
2018-03-21T11:19:06.468Z,1023.87
2018-03-21T11:20:06.493Z,1023.90
2018-03-21T11:21:06.493Z,1023.92
2018-03-21T11:22:06.506Z,1023.86
2018-03-21T11:23:06.518Z,1023.87
2018-03-21T11:24:06.531Z,1023.86
2018-03-21T11:25:06.541Z,1023.92
2018-03-21T11:26:06.556Z,1023.91
2018-03-21T11:27:06.571Z,1023.92
2018-03-21T11:28:06.579Z,1023.88
2018-03-21T11:29:06.643Z,1023.89
2018-03-21T11:30:06.600Z,1023.86
2018-03-21T11:31:06.616Z,1023.82
2018-03-21T11:32:06.638Z,1023.84
2018-03-21T11:33:06.646Z,1023.87
2018-03-21T11:34:06.681Z,1023.89
2018-03-21T11:35:06.662Z,1023.87
2018-03-21T11:36:06.674Z,1023.86
2018-03-21T11:37:06.715Z,1023.88
2018-03-21T11:38:06.702Z,1023.89
2018-03-21T11:39:06.764Z,1023.87
2018-03-21T11:40:06.724Z,1023.86
2018-03-21T11:41:06.735Z,1023.80
2018-03-21T11:42:06.749Z,1023.80
2018-03-21T11:43:06.762Z,1023.77
2018-03-21T11:44:06.778Z,1023.78
2018-03-21T11:45:06.786Z,1023.75
2018-03-21T11:46:06.797Z,1023.78
2018-03-21T11:47:06.811Z,1023.76
2018-03-21T11:48:06.822Z,1023.76
2018-03-21T11:49:06.841Z,1023.74
2018-03-21T11:50:06.854Z,1023.72
2018-03-21T11:51:06.880Z,1023.71
2018-03-21T11:52:06.882Z,1023.70
2018-03-21T11:53:06.886Z,1023.68
2018-03-21T11:54:06.901Z,1023.68
2018-03-21T11:55:06.924Z,1023.67
2018-03-21T11:56:06.940Z,1023.65
2018-03-21T11:57:06.946Z,1023.61
2018-03-21T11:58:06.959Z,1023.68
2018-03-21T11:59:06.969Z,1023.57
2018-03-21T12:00:06.981Z,1023.55
2018-03-21T12:01:07.003Z,1023.60
2018-03-21T12:02:07.015Z,1023.56
2018-03-21T12:03:07.027Z,1023.54
2018-03-21T12:04:07.035Z,1023.57
2018-03-21T12:05:07.050Z,1023.55
2018-03-21T12:06:07.068Z,1023.58
2018-03-21T12:07:07.085Z,1023.51
2018-03-21T12:08:07.091Z,1023.60
2018-03-21T12:09:07.104Z,1023.60